createdAt,value
2018-05-08T00:01:58.748Z,13.50
2018-05-08T00:04:26.339Z,13.50
2018-05-08T00:06:53.890Z,13.50
2018-05-08T00:09:21.403Z,13.60
2018-05-08T00:11:49.802Z,13.60
2018-05-08T00:14:18.598Z,13.60
2018-05-08T00:16:46.254Z,13.60
2018-05-08T00:19:13.825Z,13.60
2018-05-08T00:21:41.349Z,13.50
2018-05-08T00:24:09.624Z,13.50
2018-05-08T00:26:37.882Z,13.40
2018-05-08T00:29:05.407Z,13.30
2018-05-08T00:31:32.927Z,13.30
2018-05-08T00:34:00.448Z,13.20
2018-05-08T00:36:27.962Z,13.10
2018-05-08T00:38:55.509Z,13.00
2018-05-08T00:41:23.059Z,13.00
2018-05-08T00:43:51.385Z,12.80
2018-05-08T00:46:18.902Z,12.80
2018-05-08T00:48:46.452Z,12.80
2018-05-08T00:51:14.753Z,12.60
2018-05-08T00:53:42.763Z,12.70
2018-05-08T00:56:10.291Z,12.60
2018-05-08T00:58:37.813Z,12.60
2018-05-08T01:01:06.134Z,12.60
2018-05-08T01:03:33.654Z,12.50
2018-05-08T01:06:01.255Z,12.50
2018-05-08T01:08:28.900Z,12.50
2018-05-08T01:10:56.430Z,12.50
2018-05-08T01:13:24.715Z,12.50
2018-05-08T01:15:52.245Z,12.40
2018-05-08T01:18:19.759Z,12.40
2018-05-08T01:20:47.317Z,12.40
2018-05-08T01:23:14.825Z,12.30
2018-05-08T01:25:43.125Z,12.30
2018-05-08T01:28:10.681Z,12.30
2018-05-08T01:30:38.188Z,12.30
2018-05-08T01:33:05.716Z,12.20
2018-05-08T01:35:33.243Z,12.20
2018-05-08T01:38:01.695Z,12.10
2018-05-08T01:40:29.209Z,12.10
2018-05-08T01:42:56.763Z,12.10
2018-05-08T01:45:24.290Z,12.10
2018-05-08T01:47:52.631Z,12.00
2018-05-08T01:50:20.139Z,12.00
2018-05-08T01:52:48.474Z,12.00
2018-05-08T01:55:16.111Z,11.90
2018-05-08T01:57:43.663Z,12.00
2018-05-08T02:00:11.184Z,11.90
2018-05-08T02:02:39.457Z,11.90
2018-05-08T02:05:08.865Z,11.90
2018-05-08T02:07:37.135Z,11.90
2018-05-08T02:10:06.839Z,11.90
2018-05-08T02:12:35.181Z,11.90
2018-05-08T02:15:02.756Z,11.80
2018-05-08T02:17:30.293Z,11.90
2018-05-08T02:19:57.834Z,11.80
2018-05-08T02:22:25.391Z,11.80
2018-05-08T02:24:52.919Z,11.80
2018-05-08T02:27:21.211Z,11.70
2018-05-08T02:29:49.481Z,11.60
2018-05-08T02:32:17.762Z,11.50
2018-05-08T02:34:45.314Z,11.50
2018-05-08T02:37:13.634Z,11.50
2018-05-08T02:39:41.152Z,11.50
2018-05-08T02:42:08.707Z,11.40
2018-05-08T02:44:36.990Z,11.30
2018-05-08T02:47:05.292Z,11.20
2018-05-08T02:49:32.831Z,11.20
2018-05-08T02:52:00.375Z,11.20
2018-05-08T02:54:28.686Z,11.30
2018-05-08T02:56:56.217Z,11.30
2018-05-08T02:59:24.503Z,11.30
2018-05-08T03:01:52.765Z,11.30
2018-05-08T03:04:21.074Z,11.20
2018-05-08T03:06:48.595Z,11.20
2018-05-08T03:09:16.911Z,11.10
2018-05-08T03:11:44.420Z,11.10
2018-05-08T03:14:11.960Z,11.10
2018-05-08T03:16:39.588Z,11.10
2018-05-08T03:19:07.093Z,11.00
2018-05-08T03:21:34.605Z,11.00
2018-05-08T03:24:02.109Z,11.00
2018-05-08T03:26:29.619Z,10.90
2018-05-08T03:28:57.127Z,11.00
2018-05-08T03:31:24.657Z,11.00
2018-05-08T03:33:52.163Z,10.90
2018-05-08T03:36:20.453Z,10.90
2018-05-08T03:38:47.975Z,10.90
2018-05-08T03:41:15.555Z,10.90
2018-05-08T03:43:43.845Z,10.90
2018-05-08T03:46:12.247Z,10.90
2018-05-08T03:48:39.761Z,10.80
2018-05-08T03:51:08.053Z,10.80
2018-05-08T03:53:35.691Z,10.80
2018-05-08T03:56:03.983Z,10.70
2018-05-08T03:58:32.274Z,10.70
2018-05-08T04:01:11.649Z,10.70
2018-05-08T04:03:50.987Z,10.70
2018-05-08T04:09:17.632Z,10.80
2018-05-08T04:11:45.239Z,10.80
2018-05-08T04:14:13.552Z,10.90
2018-05-08T04:16:41.074Z,10.90
2018-05-08T04:19:09.359Z,11.00
2018-05-08T04:21:37.633Z,11.10
2018-05-08T04:24:05.947Z,11.20
2018-05-08T04:26:33.463Z,11.10
2018-05-08T04:29:01.768Z,11.40
2018-05-08T04:31:29.307Z,11.40
2018-05-08T04:33:57.595Z,11.70
2018-05-08T04:36:25.171Z,11.70
2018-05-08T04:38:52.697Z,11.90
2018-05-08T04:41:20.996Z,12.10
2018-05-08T04:43:48.536Z,12.10
2018-05-08T04:46:16.957Z,12.30
2018-05-08T04:48:44.473Z,12.30
2018-05-08T04:51:12.743Z,12.40
2018-05-08T04:53:41.050Z,12.60
2018-05-08T04:56:08.592Z,12.60
2018-05-08T04:58:36.123Z,12.70
2018-05-08T05:01:03.641Z,12.80
2018-05-08T05:03:31.213Z,12.70
2018-05-08T05:05:58.804Z,12.80
2018-05-08T05:08:26.354Z,13.00
2018-05-08T05:10:53.856Z,13.20
2018-05-08T05:13:21.383Z,13.30
2018-05-08T05:15:49.697Z,13.50
2018-05-08T05:18:17.262Z,13.50
2018-05-08T05:20:44.922Z,13.70
2018-05-08T05:23:12.463Z,13.70
2018-05-08T05:25:40.054Z,13.90
2018-05-08T05:28:07.574Z,14.10
2018-05-08T05:30:35.128Z,14.30
2018-05-08T05:33:03.476Z,15.00
2018-05-08T05:35:30.996Z,14.90
2018-05-08T05:37:58.532Z,15.10
2018-05-08T05:40:26.073Z,15.80
2018-05-08T05:42:54.393Z,17.20
2018-05-08T05:45:21.913Z,17.10
2018-05-08T05:47:50.213Z,17.60
2018-05-08T05:50:17.722Z,17.60
2018-05-08T05:52:45.325Z,18.50
2018-05-08T05:55:12.860Z,18.80
2018-05-08T05:57:41.165Z,18.30
2018-05-08T06:00:08.770Z,18.30
2018-05-08T06:02:37.019Z,18.50
2018-05-08T06:05:04.541Z,18.50
2018-05-08T06:07:32.826Z,19.30
2018-05-08T06:10:00.385Z,19.30
2018-05-08T06:12:27.898Z,18.90
2018-05-08T06:14:55.410Z,19.70
2018-05-08T06:17:22.989Z,19.30
2018-05-08T06:19:50.529Z,20.10
2018-05-08T06:22:18.051Z,19.20
2018-05-08T06:24:45.652Z,19.40
2018-05-08T06:27:13.226Z,20.10
2018-05-08T06:29:40.826Z,20.90
2018-05-08T06:32:08.370Z,21.60
2018-05-08T06:34:35.877Z,21.50
2018-05-08T06:37:03.446Z,21.90
2018-05-08T06:39:31.031Z,21.80
2018-05-08T06:41:59.259Z,21.20
2018-05-08T06:44:27.578Z,20.90
2018-05-08T06:46:55.098Z,20.90
2018-05-08T06:49:22.617Z,20.60
2018-05-08T06:51:50.147Z,20.40
2018-05-08T06:54:17.713Z,20.70
2018-05-08T06:56:45.230Z,20.70
2018-05-08T06:59:13.729Z,21.80
2018-05-08T07:01:41.277Z,21.80
2018-05-08T07:04:08.792Z,22.60
2018-05-08T07:06:36.329Z,22.50
2018-05-08T07:09:03.849Z,21.80
2018-05-08T07:11:31.393Z,20.70
2018-05-08T07:13:59.703Z,22.60
2018-05-08T07:16:27.234Z,22.50
2018-05-08T07:18:55.519Z,24.10
2018-05-08T07:21:23.072Z,24.10
2018-05-08T07:23:51.402Z,21.90
2018-05-08T07:26:18.975Z,21.90
2018-05-08T07:28:46.480Z,20.30
2018-05-08T07:31:13.995Z,20.60
2018-05-08T07:33:43.841Z,20.90
2018-05-08T07:36:11.364Z,20.90
2018-05-08T07:38:40.277Z,20.70
2018-05-08T07:41:07.806Z,20.90
2018-05-08T07:43:35.341Z,20.50
2018-05-08T07:46:02.869Z,20.90
2018-05-08T07:48:30.402Z,21.00
2018-05-08T07:50:58.698Z,20.80
2018-05-08T07:53:26.316Z,20.70
2018-05-08T07:55:53.852Z,21.00
2018-05-08T07:58:21.395Z,21.80
2018-05-08T08:00:48.929Z,21.00
2018-05-08T08:03:17.408Z,22.20
2018-05-08T08:05:44.875Z,22.20
2018-05-08T08:08:12.403Z,22.00
2018-05-08T08:10:39.972Z,21.90
2018-05-08T08:13:08.350Z,23.40
2018-05-08T08:15:36.684Z,21.90
2018-05-08T08:18:04.218Z,21.90
2018-05-08T08:20:32.053Z,22.30
2018-05-08T08:23:00.328Z,22.60
2018-05-08T08:25:28.603Z,21.80
2018-05-08T08:27:56.893Z,21.40
2018-05-08T08:30:25.171Z,22.60
2018-05-08T08:32:53.497Z,22.50
2018-05-08T08:35:21.014Z,22.50
2018-05-08T08:37:48.530Z,23.00
2018-05-08T08:40:16.064Z,23.40
2018-05-08T08:42:43.608Z,24.90
2018-05-08T08:45:11.121Z,25.00
2018-05-08T08:47:39.504Z,24.60
2018-05-08T08:50:07.099Z,24.60
2018-05-08T08:52:34.663Z,24.40
2018-05-08T08:55:02.211Z,23.70
2018-05-08T08:57:29.716Z,23.90
2018-05-08T08:59:57.252Z,24.70
2018-05-08T09:02:24.758Z,24.70
2018-05-08T09:04:52.304Z,24.70
2018-05-08T09:07:19.820Z,24.50
2018-05-08T09:09:47.336Z,23.40
2018-05-08T09:12:15.652Z,22.40
2018-05-08T09:14:43.191Z,22.40
2018-05-08T09:17:10.713Z,22.10
2018-05-08T09:19:38.291Z,23.10
2018-05-08T09:22:06.590Z,25.00
2018-05-08T09:24:34.153Z,24.90
2018-05-08T09:27:01.815Z,24.70
2018-05-08T09:29:29.332Z,23.20
2018-05-08T09:31:56.946Z,22.90
2018-05-08T09:34:24.473Z,23.50
2018-05-08T09:36:52.764Z,25.20
2018-05-08T09:39:20.288Z,25.20
2018-05-08T09:41:47.802Z,26.10
2018-05-08T09:44:15.372Z,25.40
2018-05-08T09:46:43.011Z,25.00
2018-05-08T09:49:10.669Z,23.90
2018-05-08T09:51:38.124Z,24.30
2018-05-08T09:54:05.708Z,24.60
2018-05-08T09:56:33.216Z,24.70
2018-05-08T09:59:01.519Z,24.50
2018-05-08T10:01:29.069Z,24.50
2018-05-08T10:03:56.583Z,24.80
2018-05-08T10:06:24.146Z,26.00
2018-05-08T10:08:51.668Z,25.90
2018-05-08T10:11:19.229Z,25.80
2018-05-08T10:13:46.778Z,25.40
2018-05-08T10:16:14.345Z,25.50
2018-05-08T10:18:41.886Z,24.80
2018-05-08T10:21:09.459Z,25.00
2018-05-08T10:23:37.068Z,25.40
2018-05-08T10:26:05.367Z,23.60
2018-05-08T10:28:32.909Z,23.50
2018-05-08T10:31:01.206Z,24.00
2018-05-08T10:33:28.744Z,24.00
2018-05-08T10:35:57.023Z,25.20
2018-05-08T10:38:25.308Z,24.10
2018-05-08T10:40:53.616Z,24.10
2018-05-08T10:43:21.179Z,24.00
2018-05-08T10:45:49.379Z,25.10
2018-05-08T10:48:16.884Z,24.20
2018-05-08T10:50:44.397Z,25.40
2018-05-08T10:53:11.967Z,25.50
2018-05-08T10:55:39.566Z,25.40
2018-05-08T10:58:07.862Z,25.50
2018-05-08T11:00:35.423Z,25.50
2018-05-08T11:03:04.246Z,26.40
2018-05-08T11:05:32.543Z,25.90
2018-05-08T11:08:00.811Z,26.20
2018-05-08T11:10:28.348Z,26.10
2018-05-08T11:12:55.907Z,26.40
2018-05-08T11:15:23.443Z,26.80
2018-05-08T11:17:50.948Z,27.50
2018-05-08T11:20:19.904Z,26.10
2018-05-08T11:22:48.243Z,25.70
2018-05-08T11:25:15.803Z,25.70
2018-05-08T11:27:43.329Z,25.90
2018-05-08T11:30:12.058Z,27.80
2018-05-08T11:32:39.617Z,28.30
2018-05-08T11:35:07.149Z,27.50
2018-05-08T11:37:35.467Z,26.50
2018-05-08T11:40:02.986Z,26.50
2018-05-08T11:42:31.276Z,27.10
2018-05-08T11:44:58.801Z,27.10
2018-05-08T11:47:26.355Z,27.30
2018-05-08T11:49:53.956Z,27.00
2018-05-08T11:52:21.442Z,27.20
2018-05-08T11:54:49.087Z,25.70
2018-05-08T11:57:16.584Z,25.80
2018-05-08T11:59:44.099Z,27.30
2018-05-08T12:02:11.620Z,29.00
2018-05-08T12:04:39.156Z,27.20
2018-05-08T12:07:06.669Z,28.80
2018-05-08T12:09:34.264Z,28.70
2018-05-08T12:12:01.795Z,26.60
2018-05-08T12:14:29.424Z,27.50
2018-05-08T12:16:56.919Z,27.40
2018-05-08T12:19:24.443Z,27.20
2018-05-08T12:21:52.787Z,27.00
2018-05-08T12:24:20.300Z,27.00
2018-05-08T12:26:47.858Z,27.60
2018-05-08T12:29:15.380Z,28.80
2018-05-08T12:31:42.896Z,27.30
2018-05-08T12:34:10.424Z,26.60
2018-05-08T12:36:37.944Z,27.70
2018-05-08T12:39:05.465Z,27.50
2018-05-08T12:41:33.015Z,27.50
2018-05-08T12:44:00.617Z,27.40
2018-05-08T12:46:28.138Z,26.70
2018-05-08T12:48:55.644Z,25.90
2018-05-08T12:51:23.194Z,27.10
2018-05-08T12:53:50.813Z,29.20
2018-05-08T12:56:18.351Z,30.00
2018-05-08T12:58:45.883Z,29.70
2018-05-08T13:01:14.177Z,27.40
2018-05-08T13:03:42.496Z,28.30
2018-05-08T13:06:10.010Z,28.30
2018-05-08T13:08:37.596Z,28.30
2018-05-08T13:11:06.077Z,27.80
2018-05-08T13:13:33.570Z,27.80
2018-05-08T13:16:01.092Z,28.80
2018-05-08T13:18:28.614Z,27.20
2018-05-08T13:20:56.913Z,27.20
2018-05-08T13:23:24.420Z,27.20
2018-05-08T13:25:51.955Z,28.30
2018-05-08T13:28:19.491Z,27.20
2018-05-08T13:30:47.028Z,27.50
2018-05-08T13:33:15.307Z,26.90
2018-05-08T13:35:42.876Z,26.90
2018-05-08T13:38:11.210Z,25.40
2018-05-08T13:40:38.764Z,25.30
2018-05-08T13:43:06.289Z,27.00
2018-05-08T13:45:33.868Z,28.60
2018-05-08T13:48:01.402Z,28.30
2018-05-08T13:50:28.920Z,26.30
2018-05-08T13:52:56.468Z,26.80
2018-05-08T13:55:23.998Z,28.60
2018-05-08T13:57:51.534Z,27.20
2018-05-08T14:00:19.056Z,28.20
2018-05-08T14:02:46.590Z,27.20
2018-05-08T14:05:14.115Z,25.60
2018-05-08T14:07:41.649Z,24.90
2018-05-08T14:10:09.157Z,24.40
2018-05-08T14:12:36.713Z,23.80
2018-05-08T14:15:04.225Z,24.10
2018-05-08T14:17:32.500Z,24.50
2018-05-08T14:20:00.849Z,24.40
2018-05-08T14:22:28.360Z,24.40
2018-05-08T14:24:55.964Z,24.10
2018-05-08T14:27:23.580Z,24.10
2018-05-08T14:29:51.137Z,24.40
2018-05-08T14:32:18.680Z,24.40
2018-05-08T14:34:46.248Z,24.40
2018-05-08T14:37:13.759Z,24.60
2018-05-08T14:39:41.317Z,24.70
2018-05-08T14:42:08.901Z,24.40
2018-05-08T14:44:37.198Z,24.10
2018-05-08T14:47:04.761Z,24.10
2018-05-08T14:49:32.423Z,23.90
2018-05-08T14:51:59.895Z,23.70
2018-05-08T14:54:27.415Z,23.50
2018-05-08T14:56:55.807Z,23.40
2018-05-08T14:59:23.332Z,23.50
2018-05-08T15:01:50.858Z,23.70
2018-05-08T15:04:18.430Z,23.70
2018-05-08T15:06:45.978Z,23.60
2018-05-08T15:09:13.543Z,24.00
2018-05-08T15:11:41.906Z,24.10
2018-05-08T15:14:09.371Z,24.10
2018-05-08T15:16:36.957Z,24.00
2018-05-08T15:19:04.548Z,24.30
2018-05-08T15:21:32.827Z,24.30
2018-05-08T15:24:01.102Z,23.90
2018-05-08T15:26:29.420Z,23.60
2018-05-08T15:28:56.983Z,23.60
2018-05-08T15:31:24.552Z,23.90
2018-05-08T15:33:52.116Z,23.90
2018-05-08T15:36:19.660Z,24.00
2018-05-08T15:38:47.173Z,24.10
2018-05-08T15:41:15.562Z,24.30
2018-05-08T15:43:43.115Z,24.30
2018-05-08T15:46:10.690Z,24.30
2018-05-08T15:48:38.212Z,24.40
2018-05-08T15:51:06.591Z,24.30
2018-05-08T15:53:34.893Z,24.10
2018-05-08T15:56:02.403Z,24.10
2018-05-08T15:58:29.964Z,23.90
2018-05-08T16:00:57.499Z,23.60
2018-05-08T16:03:25.037Z,23.70
2018-05-08T16:05:52.556Z,23.70
2018-05-08T16:08:21.705Z,23.80
2018-05-08T16:10:49.228Z,23.80
2018-05-08T16:13:18.296Z,24.00
2018-05-08T16:15:45.842Z,24.00
2018-05-08T16:18:13.358Z,24.00
2018-05-08T16:20:40.918Z,23.70
2018-05-08T16:23:08.438Z,23.50
2018-05-08T16:25:35.998Z,23.50
2018-05-08T16:28:03.506Z,23.30
2018-05-08T16:30:31.971Z,23.20
2018-05-08T16:32:59.456Z,23.10
2018-05-08T16:35:27.138Z,23.10
2018-05-08T16:37:54.779Z,23.00
2018-05-08T16:40:23.301Z,23.20
2018-05-08T16:42:50.889Z,23.00
2018-05-08T16:45:18.457Z,22.80
2018-05-08T16:47:46.110Z,22.70
2018-05-08T16:50:13.684Z,22.80
2018-05-08T16:52:41.206Z,23.00
2018-05-08T16:55:09.517Z,23.20
2018-05-08T16:57:37.073Z,23.10
2018-05-08T17:00:04.647Z,23.30
2018-05-08T17:02:32.206Z,23.40
2018-05-08T17:04:59.725Z,23.30
2018-05-08T17:07:28.055Z,22.90
2018-05-08T17:09:55.798Z,22.90
2018-05-08T17:12:23.334Z,22.80
2018-05-08T17:14:50.862Z,22.80
2018-05-08T17:17:18.458Z,22.60
2018-05-08T17:19:46.146Z,22.70
2018-05-08T17:22:13.737Z,22.60
2018-05-08T17:24:41.337Z,22.40
2018-05-08T17:27:08.912Z,22.40
2018-05-08T17:29:36.463Z,22.30
2018-05-08T17:32:04.060Z,22.20
2018-05-08T17:34:31.634Z,22.10
2018-05-08T17:36:59.156Z,22.00
2018-05-08T17:39:26.754Z,22.00
2018-05-08T17:41:54.287Z,21.80
2018-05-08T17:44:21.879Z,21.90
2018-05-08T17:46:49.445Z,21.70
2018-05-08T17:49:17.806Z,21.60
2018-05-08T17:51:46.154Z,21.60
2018-05-08T17:54:13.754Z,21.60
2018-05-08T17:56:41.319Z,21.50
2018-05-08T17:59:09.137Z,21.40
2018-05-08T18:01:36.718Z,21.30
2018-05-08T18:04:04.535Z,21.30
2018-05-08T18:06:32.032Z,21.10
2018-05-08T18:08:59.580Z,21.10
2018-05-08T18:11:27.256Z,20.90
2018-05-08T18:13:55.540Z,20.80
2018-05-08T18:16:23.129Z,20.80
2018-05-08T18:18:51.473Z,20.70
2018-05-08T18:21:19.102Z,20.70
2018-05-08T18:23:46.674Z,20.50
2018-05-08T18:26:14.316Z,20.50
2018-05-08T18:28:41.876Z,20.40
2018-05-08T18:31:09.478Z,20.40
2018-05-08T18:33:37.077Z,20.30
2018-05-08T18:36:04.659Z,20.20
2018-05-08T18:38:32.214Z,20.10
2018-05-08T18:40:59.757Z,20.10
2018-05-08T18:43:27.335Z,20.00
2018-05-08T18:45:54.954Z,19.90
2018-05-08T18:48:22.502Z,19.80
2018-05-08T18:50:50.143Z,19.80
2018-05-08T18:53:17.946Z,19.70
2018-05-08T18:55:46.291Z,19.60
2018-05-08T18:58:13.850Z,19.50
2018-05-08T19:00:47.189Z,19.50
2018-05-08T19:03:15.518Z,19.40
2018-05-08T19:05:43.078Z,19.40
2018-05-08T19:08:10.613Z,19.30
2018-05-08T19:10:38.168Z,19.20
2018-05-08T19:13:05.731Z,19.20
2018-05-08T19:15:38.911Z,19.10
2018-05-08T19:18:06.484Z,19.10
2018-05-08T19:20:34.130Z,19.00
2018-05-08T19:23:01.700Z,19.00
2018-05-08T19:25:29.367Z,18.90
2018-05-08T19:28:02.531Z,18.90
2018-05-08T19:30:30.082Z,18.90
2018-05-08T19:32:58.424Z,18.80
2018-05-08T19:35:31.686Z,18.80
2018-05-08T19:38:04.061Z,18.70
2018-05-08T19:40:31.603Z,18.70
2018-05-08T19:42:59.431Z,18.60
2018-05-08T19:45:27.003Z,18.60
2018-05-08T19:47:55.335Z,18.50
2018-05-08T19:50:22.919Z,18.50
2018-05-08T19:52:50.445Z,18.50
2018-05-08T19:55:18.069Z,18.40
2018-05-08T19:57:45.637Z,18.40
2018-05-08T20:00:13.282Z,18.30
2018-05-08T20:02:40.868Z,18.20
2018-05-08T20:05:08.441Z,18.20
2018-05-08T20:07:36.064Z,18.10
2018-05-08T20:10:04.378Z,18.00
2018-05-08T20:12:31.924Z,18.00
2018-05-08T20:14:59.647Z,18.00
2018-05-08T20:17:27.997Z,17.90
2018-05-08T20:19:55.538Z,17.90
2018-05-08T20:22:23.107Z,17.90
2018-05-08T20:24:50.662Z,17.80
2018-05-08T20:27:18.201Z,17.80
2018-05-08T20:29:45.779Z,17.70
2018-05-08T20:32:13.345Z,17.70
2018-05-08T20:34:40.889Z,17.70
2018-05-08T20:37:08.516Z,17.60
2018-05-08T20:39:36.092Z,17.60
2018-05-08T20:42:03.654Z,17.60
2018-05-08T20:44:31.273Z,17.60
2018-05-08T20:46:59.624Z,17.60
2018-05-08T20:49:27.151Z,17.60
2018-05-08T20:51:54.994Z,17.60
2018-05-08T20:54:23.286Z,17.50
2018-05-08T20:56:50.853Z,17.50
2018-05-08T20:59:18.380Z,17.50
2018-05-08T21:01:46.765Z,17.40
2018-05-08T21:04:15.038Z,17.30
2018-05-08T21:06:43.412Z,17.30
2018-05-08T21:09:11.004Z,17.30
2018-05-08T21:11:38.565Z,17.30
2018-05-08T21:14:06.166Z,17.20
2018-05-08T21:16:33.710Z,17.20
2018-05-08T21:19:01.283Z,17.20
2018-05-08T21:21:28.813Z,17.20
2018-05-08T21:23:56.367Z,17.10
2018-05-08T21:26:23.918Z,17.00
2018-05-08T21:28:57.110Z,17.00
2018-05-08T21:31:24.644Z,16.90
2018-05-08T21:33:52.945Z,16.90
2018-05-08T21:36:20.478Z,16.80
2018-05-08T21:38:48.038Z,16.80
2018-05-08T21:41:16.357Z,16.80
2018-05-08T21:43:43.901Z,16.80
2018-05-08T21:46:11.484Z,16.80
2018-05-08T21:48:39.022Z,16.80
2018-05-08T21:51:06.546Z,16.70
2018-05-08T21:53:34.901Z,16.70
2018-05-08T21:56:02.432Z,16.60
2018-05-08T21:58:29.973Z,16.60
2018-05-08T22:00:57.548Z,16.60
2018-05-08T22:03:25.053Z,16.60
2018-05-08T22:05:53.367Z,16.40
2018-05-08T22:08:20.881Z,16.40
2018-05-08T22:10:49.198Z,16.30
2018-05-08T22:13:16.731Z,16.30
2018-05-08T22:15:45.016Z,16.20
2018-05-08T22:18:12.538Z,16.20
2018-05-08T22:20:40.149Z,16.20
2018-05-08T22:23:07.702Z,16.10
2018-05-08T22:25:35.219Z,16.10
2018-05-08T22:28:03.515Z,16.00
2018-05-08T22:30:32.111Z,15.90
2018-05-08T22:32:59.633Z,15.90
2018-05-08T22:35:27.158Z,15.90
2018-05-08T22:37:54.690Z,15.80
2018-05-08T22:40:22.278Z,15.80
2018-05-08T22:42:49.851Z,15.80
2018-05-08T22:45:17.389Z,15.70
2018-05-08T22:47:44.947Z,15.60
2018-05-08T22:50:12.477Z,15.60
2018-05-08T22:52:39.989Z,15.50
2018-05-08T22:55:07.537Z,15.40
2018-05-08T22:57:35.054Z,15.40
2018-05-08T23:00:02.613Z,15.40
2018-05-08T23:02:30.156Z,15.40
2018-05-08T23:04:58.475Z,15.30
2018-05-08T23:07:26.009Z,15.30
2018-05-08T23:09:53.555Z,15.20
2018-05-08T23:12:21.899Z,15.10
2018-05-08T23:14:49.419Z,15.10
2018-05-08T23:17:17.020Z,15.00
2018-05-08T23:19:44.569Z,15.00
2018-05-08T23:22:12.110Z,14.90
2018-05-08T23:24:39.616Z,14.90
2018-05-08T23:27:07.918Z,14.80
2018-05-08T23:29:35.447Z,14.70
2018-05-08T23:32:03.761Z,14.70
2018-05-08T23:34:31.290Z,14.60
2018-05-08T23:36:59.629Z,14.50
2018-05-08T23:39:27.185Z,14.50
2018-05-08T23:41:54.707Z,14.50
2018-05-08T23:44:22.240Z,14.40
2018-05-08T23:46:51.993Z,14.30
2018-05-08T23:49:19.552Z,14.30
2018-05-08T23:51:47.060Z,14.30
2018-05-08T23:54:15.482Z,14.20
2018-05-08T23:56:43.008Z,14.20
2018-05-08T23:59:11.325Z,14.00
